Time;durP1;ratioP1;P1;durP2;ratioP2;P2;SDS_P1;SDS_P2;PMS_P1;PMS_P2;Temp;Humidity;BMP_temperature;BMP_pressure;BME280_temperature;BME280_humidity;BME280_pressure;Samples;Min_cycle;Max_cycle;Signal;HPM_P1;HPM_P2
2023/03/22 00:01:08;;;;;;;91.75;53.95;;;27.20;99.90;;;;;;5015524;28;20131;-68
2023/03/22 00:03:35;;;;;;;72.40;43.10;;;27.30;99.90;;;;;;5015526;28;20018;-67
2023/03/22 00:06:01;;;;;;;55.50;35.65;;;27.40;99.90;;;;;;5015409;28;20026;-67
2023/03/22 00:08:28;;;;;;;54.05;32.22;;;27.40;99.90;;;;;;5015597;28;20022;-67
2023/03/22 00:10:54;;;;;;;45.78;30.77;;;27.50;99.90;;;;;;5015388;28;20025;-68
2023/03/22 00:13:21;;;;;;;38.20;26.00;;;27.50;99.90;;;;;;5015489;28;20034;-67
2023/03/22 00:15:48;;;;;;;42.90;23.67;;;27.50;99.90;;;;;;5015323;28;20037;-67
2023/03/22 00:18:17;;;;;;;75.05;52.83;;;27.60;99.90;;;;;;5015273;28;20029;-67
2023/03/22 00:20:47;;;;;;;50.20;30.33;;;27.70;99.90;;;;;;5015155;28;20076;-67
2023/03/22 00:23:13;;;;;;;50.67;31.55;;;27.80;99.90;;;;;;5015323;28;20360;-67
2023/03/22 00:25:40;;;;;;;42.58;28.85;;;27.80;99.90;;;;;;5015146;28;20056;-67
2023/03/22 00:28:06;;;;;;;31.13;17.88;;;27.80;99.90;;;;;;5015152;28;20060;-67
2023/03/22 00:30:33;;;;;;;31.45;20.83;;;27.80;99.90;;;;;;5015119;28;20494;-68
2023/03/22 00:32:59;;;;;;;35.15;22.75;;;27.90;99.90;;;;;;5014955;28;20029;-67
2023/03/22 00:35:26;;;;;;;38.47;25.23;;;27.90;99.90;;;;;;5015017;28;20032;-69
2023/03/22 00:37:53;;;;;;;39.42;29.65;;;27.90;99.90;;;;;;5015007;28;20474;-67
2023/03/22 00:40:19;;;;;;;46.15;27.52;;;27.90;99.90;;;;;;5014761;28;20384;-67
2023/03/22 00:42:46;;;;;;;38.45;25.85;;;28.00;99.90;;;;;;5014880;28;20026;-67
2023/03/22 00:45:13;;;;;;;38.72;27.13;;;28.00;99.90;;;;;;5014797;28;20376;-67
2023/03/22 00:47:40;;;;;;;36.53;27.70;;;28.00;99.90;;;;;;5014737;28;20030;-66
2023/03/22 00:50:07;;;;;;;40.08;27.70;;;28.10;99.90;;;;;;5014722;28;20026;-67
2023/03/22 00:52:34;;;;;;;42.97;28.55;;;28.10;99.90;;;;;;5015136;28;20025;-67
2023/03/22 00:55:00;;;;;;;47.08;30.42;;;28.10;99.90;;;;;;5014572;28;20105;-67
2023/03/22 00:57:27;;;;;;;43.78;30.38;;;28.10;99.90;;;;;;5014564;28;20071;-66
2023/03/22 00:59:54;;;;;;;37.33;28.10;;;28.10;99.90;;;;;;5014493;28;20029;-67
2023/03/22 01:02:28;;;;;;;41.42;29.40;;;28.10;99.90;;;;;;5014372;28;20529;-67
2023/03/22 01:04:55;;;;;;;46.30;34.42;;;28.10;99.90;;;;;;5014321;28;20065;-68
2023/03/22 01:07:22;;;;;;;49.95;36.47;;;28.20;99.90;;;;;;5014529;28;20018;-67
2023/03/22 01:09:50;;;;;;;56.92;42.92;;;28.20;99.90;;;;;;5014237;28;20025;-67
2023/03/22 01:12:18;;;;;;;38.65;26.10;;;28.20;99.90;;;;;;5014272;28;20079;-68
2023/03/22 01:14:45;;;;;;;37.17;26.80;;;28.20;99.90;;;;;;5014330;28;20032;-67
2023/03/22 01:17:12;;;;;;;60.22;43.53;;;28.10;99.90;;;;;;5027422;28;20053;-67
2023/03/22 01:19:38;;;;;;;48.05;33.03;;;28.20;99.90;;;;;;5034023;28;20026;-66
2023/03/22 01:22:07;;;;;;;43.63;27.85;;;28.30;99.90;;;;;;5033789;28;20501;-69
2023/03/22 01:24:34;;;;;;;50.72;32.50;;;28.30;99.90;;;;;;5033506;28;20079;-69
2023/03/22 01:27:00;;;;;;;43.53;28.63;;;28.40;99.90;;;;;;5033741;28;20021;-70
2023/03/22 01:29:27;;;;;;;89.53;49.53;;;28.40;99.90;;;;;;5033882;28;20013;-70
2023/03/22 01:31:53;;;;;;;49.25;31.67;;;28.50;99.90;;;;;;5033577;28;20386;-68
2023/03/22 01:34:21;;;;;;;34.15;21.40;;;28.50;99.90;;;;;;5033861;28;20053;-68
2023/03/22 01:36:49;;;;;;;34.35;23.85;;;28.60;99.90;;;;;;5033534;28;20033;-69
2023/03/22 01:39:16;;;;;;;30.73;21.63;;;28.60;99.90;;;;;;5033492;28;20546;-70
2023/03/22 01:41:42;;;;;;;43.53;25.20;;;28.60;99.90;;;;;;5033478;28;20037;-70
2023/03/22 01:44:15;;;;;;;28.15;20.45;;;28.60;99.90;;;;;;5033579;28;20026;-70
2023/03/22 01:46:43;;;;;;;34.80;19.70;;;28.70;99.90;;;;;;5033648;28;20018;-68
2023/03/22 01:49:21;;;;;;;30.55;19.42;;;28.70;99.90;;;;;;5033050;28;20045;-68
2023/03/22 01:51:50;;;;;;;25.05;17.98;;;28.70;99.90;;;;;;5033550;28;20447;-67
2023/03/22 01:54:28;;;;;;;31.73;20.13;;;28.70;99.90;;;;;;5033456;28;20463;-70
2023/03/22 01:56:55;;;;;;;31.58;20.25;;;28.70;99.90;;;;;;5033434;28;20033;-69
2023/03/22 01:59:23;;;;;;;30.48;19.83;;;28.70;99.90;;;;;;5033261;28;20128;-68
2023/03/22 02:01:49;;;;;;;23.48;15.88;;;28.80;99.90;;;;;;5033313;28;20041;-67
2023/03/22 02:04:22;;;;;;;22.23;13.75;;;28.80;99.90;;;;;;5033377;28;20025;-71
2023/03/22 02:06:54;;;;;;;17.20;12.23;;;28.80;99.90;;;;;;5033145;28;20017;-70
2023/03/22 02:09:21;;;;;;;18.30;12.60;;;28.80;99.90;;;;;;5033363;28;20028;-69
2023/03/22 02:12:00;;;;;;;20.42;13.25;;;28.80;99.90;;;;;;5033256;28;20113;-68
2023/03/22 02:14:32;;;;;;;26.55;13.82;;;28.90;99.90;;;;;;5033141;28;20018;-68
2023/03/22 02:17:07;;;;;;;25.33;16.70;;;29.00;99.90;;;;;;5033113;28;20453;-68
2023/03/22 02:19:41;;;;;;;21.20;12.88;;;29.00;99.90;;;;;;5032923;28;20037;-68
2023/03/22 02:22:13;;;;;;;16.48;12.13;;;29.00;99.90;;;;;;5031214;28;20030;-69
2023/03/22 02:24:45;;;;;;;;;;;29.10;99.90;;;;;;5020122;28;20025;-69
2023/03/22 02:27:21;;;;;;;22.67;14.82;;;29.10;99.90;;;;;;5027937;28;19972;-69
2023/03/22 02:29:57;;;;;;;35.25;24.65;;;29.20;99.90;;;;;;5013095;28;20084;-72
2023/03/22 02:32:26;;;;;;;30.63;21.98;;;29.20;99.90;;;;;;5013332;28;20026;-71
2023/03/22 02:34:55;;;;;;;30.75;20.92;;;29.20;99.90;;;;;;5013196;28;20109;-69
2023/03/22 02:37:36;;;;;;;21.60;15.32;;;29.20;99.90;;;;;;5024317;28;20033;-69
2023/03/22 02:40:12;;;;;;;145.50;86.55;;;29.20;99.90;;;;;;5013193;28;20072;-70
2023/03/22 02:42:42;;;;;;;93.00;56.78;;;29.20;99.90;;;;;;5012888;28;20030;-70
2023/03/22 02:45:13;;;;;;;51.83;35.35;;;29.20;99.90;;;;;;5013170;28;20026;-70
2023/03/22 02:47:43;;;;;;;31.42;22.95;;;29.20;99.90;;;;;;5023880;28;20036;-69
2023/03/22 02:50:12;;;;;;;31.00;24.45;;;29.30;99.90;;;;;;5031619;28;20025;-71
2023/03/22 02:52:53;;;;;;;49.90;34.45;;;29.40;99.90;;;;;;5028774;28;20524;-71
2023/03/22 02:55:22;;;;;;;68.65;46.90;;;29.50;99.90;;;;;;5028843;28;20379;-70
2023/03/22 02:57:54;;;;;;;38.58;27.48;;;29.50;99.90;;;;;;5031426;28;20025;-70
2023/03/22 03:00:20;;;;;;;51.78;30.67;;;29.50;99.90;;;;;;5030461;28;20026;-71
2023/03/22 03:02:56;;;;;;;57.10;37.67;;;29.50;99.90;;;;;;5036003;28;20060;-69
2023/03/22 03:05:24;;;;;;;52.03;36.65;;;29.50;99.90;;;;;;5036518;28;20480;-68
2023/03/22 03:07:57;;;;;;;37.38;26.70;;;29.50;99.90;;;;;;5036352;28;20026;-69
2023/03/22 03:10:25;;;;;;;33.80;25.05;;;29.50;99.90;;;;;;5036520;28;20017;-68
2023/03/22 03:12:51;;;;;;;38.67;25.45;;;29.50;99.90;;;;;;5036368;28;20053;-68
2023/03/22 03:15:20;;;;;;;37.63;24.50;;;29.50;99.90;;;;;;5036228;28;20069;-68
2023/03/22 03:17:52;;;;;;;32.80;23.42;;;29.50;99.90;;;;;;5036330;28;20100;-68
2023/03/22 03:20:23;;;;;;;34.33;21.73;;;29.60;99.90;;;;;;5036159;28;20056;-69
2023/03/22 03:22:50;;;;;;;31.92;21.63;;;29.50;99.90;;;;;;5032053;28;20107;-68
2023/03/22 03:25:27;;;;;;;28.90;19.88;;;29.60;99.90;;;;;;5036044;28;20462;-67
2023/03/22 03:35:49;;;;;;;33.00;24.13;;;29.70;99.90;;;;;;5091465;28;20455;-69
2023/03/22 03:38:21;;;;;;;42.65;31.27;;;29.70;99.90;;;;;;5090578;28;20033;-68
2023/03/22 03:40:53;;;;;;;81.45;68.05;;;29.90;99.90;;;;;;5090696;28;20028;-68
2023/03/22 03:43:21;;;;;;;46.70;31.08;;;30.00;99.90;;;;;;5090704;28;20050;-68
2023/03/22 03:45:47;;;;;;;30.52;22.48;;;30.00;99.90;;;;;;5090621;28;20020;-68
2023/03/22 03:48:20;;;;;;;28.00;20.70;;;30.00;99.90;;;;;;5090628;28;20024;-67
2023/03/22 03:50:49;;;;;;;29.20;20.45;;;30.20;99.90;;;;;;5090461;28;20027;-67
2023/03/22 03:53:16;;;;;;;34.22;23.20;;;30.20;99.90;;;;;;5090558;28;20073;-67
2023/03/22 03:55:43;;;;;;;31.38;22.88;;;30.20;99.90;;;;;;5090518;28;20046;-67
2023/03/22 03:58:09;;;;;;;26.30;18.73;;;30.40;99.90;;;;;;5090912;28;20016;-68
2023/03/22 04:00:36;;;;;;;34.53;23.25;;;30.40;99.90;;;;;;5090846;28;20108;-68
2023/03/22 04:03:05;;;;;;;22.90;16.98;;;30.40;99.90;;;;;;5090278;28;20426;-67
2023/03/22 04:05:32;;;;;;;28.08;20.33;;;30.50;99.90;;;;;;5089872;28;20032;-67
2023/03/22 04:07:59;;;;;;;30.23;21.13;;;30.60;99.90;;;;;;5090356;28;20021;-67
2023/03/22 04:10:25;;;;;;;23.88;17.98;;;30.60;99.90;;;;;;5090120;28;20032;-67
2023/03/22 04:12:52;;;;;;;19.48;16.27;;;30.60;99.90;;;;;;5089904;28;20480;-67
2023/03/22 04:15:18;;;;;;;23.70;17.55;;;30.70;99.90;;;;;;5089931;28;20109;-67
2023/03/22 04:17:45;;;;;;;30.88;23.23;;;30.70;99.90;;;;;;5090061;28;20016;-67
2023/03/22 04:20:12;;;;;;;26.83;19.40;;;30.70;99.90;;;;;;5089905;28;20058;-67
2023/03/22 04:22:40;;;;;;;28.40;19.20;;;30.70;99.90;;;;;;5089748;28;20024;-67
2023/03/22 04:25:10;;;;;;;28.58;20.25;;;30.70;99.90;;;;;;5089779;28;20016;-67
2023/03/22 04:27:39;;;;;;;32.05;19.20;;;30.80;99.90;;;;;;5089361;28;20025;-67
2023/03/22 04:30:10;;;;;;;28.30;18.10;;;30.80;99.90;;;;;;5089778;28;20028;-68
2023/03/22 04:32:37;;;;;;;26.00;17.65;;;30.80;99.90;;;;;;5089714;28;20024;-67
2023/03/22 04:35:04;;;;;;;24.48;16.75;;;30.80;99.90;;;;;;5087971;28;20144;-67
2023/03/22 04:37:31;;;;;;;25.58;16.73;;;30.70;99.90;;;;;;5089574;28;20469;-66
2023/03/22 04:39:58;;;;;;;29.20;18.58;;;30.70;99.90;;;;;;5089602;28;20059;-66
2023/03/22 04:42:24;;;;;;;25.98;19.70;;;30.70;99.90;;;;;;5089400;28;20051;-67
2023/03/22 04:44:51;;;;;;;30.95;19.75;;;30.70;99.90;;;;;;5087629;28;20039;-68
2023/03/22 04:47:18;;;;;;;30.77;20.38;;;30.80;99.90;;;;;;5075719;28;20381;-67
2023/03/22 04:49:45;;;;;;;27.05;18.90;;;30.80;99.90;;;;;;5075723;28;20024;-67
2023/03/22 04:52:11;;;;;;;35.35;24.15;;;30.90;99.90;;;;;;5075314;28;20023;-67
2023/03/22 04:54:38;;;;;;;31.50;22.17;;;30.90;99.90;;;;;;5075752;28;20384;-67
2023/03/22 04:57:04;;;;;;;35.75;20.95;;;31.00;99.90;;;;;;5075606;28;20465;-66
2023/03/22 04:59:31;;;;;;;28.52;20.27;;;31.00;99.90;;;;;;5075662;28;20056;-67
2023/03/22 05:01:58;;;;;;;31.90;21.80;;;31.00;99.90;;;;;;5075710;28;20012;-67
2023/03/22 05:04:26;;;;;;;30.40;22.60;;;31.10;99.90;;;;;;5063128;28;20099;-65
2023/03/22 05:06:52;;;;;;;29.98;21.45;;;31.20;99.90;;;;;;5069662;28;20044;-66
2023/03/22 05:09:19;;;;;;;30.42;21.92;;;31.40;99.90;;;;;;5075462;28;20025;-67
2023/03/22 05:11:46;;;;;;;36.95;23.15;;;31.40;99.90;;;;;;5075340;28;20031;-65
2023/03/22 05:14:13;;;;;;;36.35;22.42;;;31.40;99.90;;;;;;5075512;28;20393;-66
2023/03/22 05:16:39;;;;;;;30.80;22.63;;;31.40;99.90;;;;;;5075546;28;20016;-67
2023/03/22 05:19:12;;;;;;;53.35;34.70;;;31.50;99.90;;;;;;5056901;28;20027;-68
2023/03/22 05:21:42;;;;;;;43.53;27.80;;;31.40;99.90;;;;;;5060694;28;20474;-69
2023/03/22 05:24:10;;;;;;;36.08;24.05;;;31.50;99.90;;;;;;5068697;28;20033;-70
2023/03/22 05:26:41;;;;;;;34.08;22.50;;;31.50;99.90;;;;;;5064335;28;20036;-68
2023/03/22 05:29:11;;;;;;;30.48;24.60;;;31.50;99.90;;;;;;5062037;28;20060;-69
2023/03/22 05:31:39;;;;;;;32.63;22.85;;;31.50;99.90;;;;;;5062462;28;20028;-68
2023/03/22 05:34:06;;;;;;;68.07;56.35;;;31.70;99.90;;;;;;5064564;28;20054;-69
2023/03/22 05:36:35;;;;;;;46.85;35.00;;;31.80;99.90;;;;;;5065927;28;20409;-69
2023/03/22 05:39:02;;;;;;;38.83;27.73;;;31.80;99.90;;;;;;5062152;28;20074;-68
2023/03/22 05:41:30;;;;;;;37.72;21.98;;;31.80;99.90;;;;;;5069213;28;20024;-67
2023/03/22 05:43:57;;;;;;;30.65;21.17;;;31.90;99.90;;;;;;5063621;28;20406;-67
2023/03/22 05:46:23;;;;;;;37.53;27.30;;;32.10;99.90;;;;;;5065268;28;20028;-67
2023/03/22 05:48:50;;;;;;;31.85;22.33;;;32.20;99.90;;;;;;5069975;28;20132;-68
2023/03/22 05:51:18;;;;;;;35.90;27.10;;;32.20;99.90;;;;;;5065047;28;20017;-67
2023/03/22 05:53:47;;;;;;;46.97;38.70;;;32.10;99.90;;;;;;5063447;28;20028;-67
2023/03/22 05:56:14;;;;;;;28.92;22.55;;;32.10;99.90;;;;;;5064220;28;20017;-69
2023/03/22 05:58:41;;;;;;;31.42;22.98;;;32.10;99.90;;;;;;5063678;28;20029;-70
2023/03/22 06:01:10;;;;;;;29.35;22.45;;;32.10;99.90;;;;;;5057476;28;20031;-69
2023/03/22 06:03:38;;;;;;;30.08;21.38;;;32.20;99.90;;;;;;5062328;28;20025;-69
2023/03/22 06:06:09;;;;;;;27.15;21.55;;;32.20;99.90;;;;;;5062027;28;20428;-68
2023/03/22 06:08:38;;;;;;;31.47;23.27;;;32.20;99.90;;;;;;5059535;28;20037;-69
2023/03/22 06:11:05;;;;;;;29.67;23.35;;;32.30;99.90;;;;;;5061938;28;20051;-69
2023/03/22 06:13:36;;;;;;;29.75;23.73;;;32.40;99.90;;;;;;5063324;28;20029;-70
2023/03/22 06:16:03;;;;;;;28.42;22.25;;;32.50;99.90;;;;;;5066315;28;20384;-71
2023/03/22 06:18:31;;;;;;;24.25;21.48;;;32.50;99.90;;;;;;5070510;28;20024;-73
2023/03/22 06:20:58;;;;;;;27.55;22.30;;;32.50;99.90;;;;;;5063486;28;20021;-71
2023/03/22 06:23:25;;;;;;;32.45;22.10;;;32.70;99.90;;;;;;5060183;28;20033;-72
2023/03/22 06:25:51;;;;;;;31.38;22.80;;;32.90;99.90;;;;;;5055567;28;20068;-72
2023/03/22 06:28:18;;;;;;;26.42;20.83;;;32.90;99.90;;;;;;5053579;28;20088;-73
2023/03/22 06:30:44;;;;;;;26.30;20.60;;;32.90;99.90;;;;;;5057806;28;20112;-70
2023/03/22 06:33:12;;;;;;;27.70;20.95;;;33.00;99.90;;;;;;5052853;28;20020;-74
2023/03/22 06:35:39;;;;;;;30.65;22.13;;;33.00;99.90;;;;;;5056419;28;20501;-70
2023/03/22 06:38:05;;;;;;;27.42;21.70;;;33.10;99.90;;;;;;5058047;28;20032;-70
2023/03/22 06:40:33;;;;;;;30.55;20.00;;;33.20;99.90;;;;;;5067065;28;20150;-73
2023/03/22 06:43:00;;;;;;;21.23;17.50;;;33.40;99.90;;;;;;5062076;28;20121;-72
2023/03/22 06:45:32;;;;;;;28.85;19.38;;;33.40;99.90;;;;;;5063245;28;20013;-72
2023/03/22 06:47:58;;;;;;;;;;;33.40;99.90;;;;;;5064446;28;20039;-73
2023/03/22 06:50:26;;;;;;;28.40;20.60;;;33.40;99.90;;;;;;5062912;28;20281;-73
2023/03/22 06:52:52;;;;;;;27.52;21.45;;;33.40;99.90;;;;;;5053896;28;20024;-74
2023/03/22 06:55:19;;;;;;;27.92;21.13;;;33.50;99.90;;;;;;5061541;28;20082;-73
2023/03/22 06:57:45;;;;;;;27.55;20.38;;;33.60;99.90;;;;;;5062197;28;20474;-73
2023/03/22 07:00:13;;;;;;;118.03;99.15;;;33.60;99.90;;;;;;5059785;28;20074;-71
2023/03/22 07:02:39;;;;;;;24.27;21.48;;;33.50;99.90;;;;;;5058303;28;20108;-72
2023/03/22 07:05:06;;;;;;;26.98;20.17;;;33.60;99.90;;;;;;5053558;28;20063;-71
2023/03/22 07:07:32;;;;;;;27.20;21.10;;;33.70;99.90;;;;;;5053611;28;20428;-72
2023/03/22 07:09:59;;;;;;;25.40;22.25;;;33.70;99.90;;;;;;5053241;28;20021;-72
2023/03/22 07:12:25;;;;;;;24.83;20.67;;;33.70;99.90;;;;;;5064183;28;20593;-73
2023/03/22 07:14:52;;;;;;;27.10;22.13;;;33.80;99.90;;;;;;5062270;28;20377;-72
2023/03/22 07:17:19;;;;;;;27.63;23.55;;;33.80;99.90;;;;;;5063372;28;20051;-72
2023/03/22 07:19:45;;;;;;;27.90;23.23;;;33.80;99.90;;;;;;5061671;28;20096;-73
2023/03/22 07:22:12;;;;;;;31.48;23.25;;;33.80;99.90;;;;;;5070398;28;20022;-71
2023/03/22 07:24:39;;;;;;;26.23;21.45;;;33.90;99.90;;;;;;5073083;28;20496;-71
2023/03/22 07:27:05;;;;;;;26.02;22.25;;;34.00;99.90;;;;;;5073429;28;20056;-71
2023/03/22 07:29:32;;;;;;;30.13;22.83;;;34.00;99.90;;;;;;5073242;28;20020;-71
2023/03/22 07:31:58;;;;;;;28.40;23.38;;;34.20;99.90;;;;;;5073079;28;20103;-71
2023/03/22 07:34:25;;;;;;;23.33;20.83;;;34.20;99.90;;;;;;5073101;28;20136;-71
2023/03/22 07:36:55;;;;;;;26.02;21.52;;;34.30;99.90;;;;;;5073179;28;20048;-69
2023/03/22 07:39:23;;;;;;;24.08;19.85;;;34.30;99.90;;;;;;5072941;28;20027;-71
2023/03/22 07:41:50;;;;;;;29.20;22.92;;;34.30;99.90;;;;;;5073093;28;20013;-73
2023/03/22 07:44:17;;;;;;;30.98;22.95;;;34.30;99.90;;;;;;5073112;28;20121;-74
2023/03/22 07:46:44;;;;;;;30.77;24.02;;;34.40;99.90;;;;;;5073130;28;20040;-72
2023/03/22 07:49:10;;;;;;;26.25;21.55;;;34.50;99.90;;;;;;5073234;28;20017;-71
2023/03/22 07:51:37;;;;;;;35.03;27.20;;;34.40;99.90;;;;;;5073076;28;20035;-68
2023/03/22 07:54:04;;;;;;;29.65;24.88;;;34.50;99.90;;;;;;5072854;28;20033;-73
2023/03/22 07:56:31;;;;;;;32.22;24.15;;;34.50;99.90;;;;;;5073119;28;20032;-72
2023/03/22 07:58:57;;;;;;;28.60;23.13;;;34.50;99.90;;;;;;5073125;28;20070;-73
2023/03/22 08:01:24;;;;;;;42.20;34.28;;;34.50;99.90;;;;;;5072852;28;20016;-70
2023/03/22 08:03:51;;;;;;;35.10;27.10;;;34.50;99.90;;;;;;5072948;28;20519;-71
2023/03/22 08:06:20;;;;;;;34.33;27.10;;;34.50;99.90;;;;;;5072930;28;20029;-69
2023/03/22 08:08:47;;;;;;;31.60;24.75;;;34.50;99.90;;;;;;5072573;28;20029;-70
2023/03/22 08:11:13;;;;;;;34.08;26.42;;;34.60;99.90;;;;;;5071549;28;20103;-70
2023/03/22 08:13:40;;;;;;;34.22;26.55;;;34.60;99.90;;;;;;5072749;28;20070;-70
2023/03/22 08:16:07;;;;;;;37.17;26.48;;;34.60;99.90;;;;;;5072607;28;20493;-71
2023/03/22 08:18:33;;;;;;;31.17;24.10;;;34.70;99.90;;;;;;5061397;28;20024;-70
2023/03/22 08:21:00;;;;;;;28.45;23.30;;;34.70;99.90;;;;;;5074392;28;20016;-71
2023/03/22 08:23:27;;;;;;;33.28;26.05;;;34.60;99.90;;;;;;5076369;28;20023;-71
2023/03/22 08:25:54;;;;;;;28.83;24.73;;;34.50;99.90;;;;;;5076478;28;20466;-71
2023/03/22 08:28:21;;;;;;;28.27;23.20;;;34.40;99.90;;;;;;5076528;28;20107;-71
2023/03/22 08:30:48;;;;;;;30.90;24.50;;;34.40;99.90;;;;;;5076259;28;20020;-69
2023/03/22 08:33:15;;;;;;;35.20;27.67;;;34.30;99.90;;;;;;5076043;28;20119;-69
2023/03/22 08:35:42;;;;;;;36.45;28.05;;;34.20;99.90;;;;;;5076260;28;20044;-70
2023/03/22 08:38:08;;;;;;;42.10;30.83;;;34.10;99.90;;;;;;5076122;28;20377;-72
2023/03/22 08:40:35;;;;;;;41.65;32.85;;;33.90;99.90;;;;;;5076262;28;20079;-69
2023/03/22 08:43:01;;;;;;;44.95;32.72;;;33.90;99.90;;;;;;5076065;28;20023;-70
2023/03/22 08:45:28;;;;;;;48.92;33.47;;;33.80;99.90;;;;;;5075928;28;20032;-67
2023/03/22 08:47:56;;;;;;;40.97;29.38;;;33.60;99.90;;;;;;5076069;28;20036;-72
2023/03/22 08:50:22;;;;;;;36.42;29.10;;;33.50;99.90;;;;;;5075971;28;20028;-69
2023/03/22 08:52:49;;;;;;;39.58;30.48;;;33.40;99.90;;;;;;5075908;28;20032;-71
2023/03/22 08:55:16;;;;;;;40.03;31.02;;;33.40;99.90;;;;;;5075803;28;20505;-70
2023/03/22 08:57:49;;;;;;;45.47;34.13;;;33.40;99.90;;;;;;5075940;28;20021;-70
2023/03/22 09:00:17;;;;;;;46.08;34.45;;;33.40;99.90;;;;;;5075625;28;20122;-69
2023/03/22 09:02:44;;;;;;;47.15;32.50;;;33.50;99.90;;;;;;5075714;28;20047;-69
2023/03/22 09:05:12;;;;;;;31.70;22.25;;;33.30;99.90;;;;;;5075754;28;20020;-70
2023/03/22 09:07:39;;;;;;;27.80;15.23;;;33.10;99.90;;;;;;5075596;28;20478;-71
2023/03/22 09:10:07;;;;;;;21.58;15.55;;;32.90;99.90;;;;;;5075655;28;20029;-69
2023/03/22 09:12:34;;;;;;;41.35;23.02;;;32.60;99.90;;;;;;5075593;28;20020;-70
2023/03/22 09:15:00;;;;;;;35.15;22.52;;;32.60;99.90;;;;;;5075268;28;20378;-71
2023/03/22 09:17:27;;;;;;;34.53;19.33;;;32.60;99.90;;;;;;5075552;28;20024;-70
2023/03/22 09:19:53;;;;;;;30.70;18.73;;;32.40;99.90;;;;;;5075575;28;20027;-70
2023/03/22 09:22:20;;;;;;;29.58;19.80;;;32.40;99.90;;;;;;5075320;28;20052;-74
2023/03/22 09:24:46;;;;;;;32.55;22.42;;;32.40;99.90;;;;;;5075456;28;20051;-68
2023/03/22 09:27:13;;;;;;;35.67;25.20;;;32.50;99.90;;;;;;5075587;28;20440;-68
2023/03/22 09:29:39;;;;;;;30.83;20.50;;;32.40;99.90;;;;;;5075375;28;20442;-68
2023/03/22 09:32:06;;;;;;;29.38;20.73;;;32.20;99.90;;;;;;5075344;28;20025;-70
2023/03/22 09:34:33;;;;;;;34.67;20.27;;;31.60;99.90;;;;;;5073556;28;20405;-70
2023/03/22 09:37:01;;;;;;;35.20;26.15;;;31.30;99.90;;;;;;5075444;28;20095;-72
2023/03/22 09:39:28;;;;;;;40.85;27.75;;;31.10;99.90;;;;;;5075829;28;20021;-70
2023/03/22 09:41:59;;;;;;;37.92;29.38;;;31.00;99.90;;;;;;5075363;28;20418;-73
2023/03/22 09:44:36;;;;;;;34.92;26.33;;;30.90;99.90;;;;;;5075006;28;20025;-72
2023/03/22 09:47:06;;;;;;;54.55;25.92;;;30.80;99.90;;;;;;5075116;28;20485;-73
2023/03/22 09:49:38;;;;;;;57.78;39.60;;;30.60;99.90;;;;;;5075091;28;20051;-71
2023/03/22 09:52:13;;;;;;;28.13;21.35;;;30.40;99.90;;;;;;5075097;28;20040;-73
2023/03/22 09:54:42;;;;;;;24.83;18.58;;;30.10;99.90;;;;;;5074925;28;20031;-74
2023/03/22 09:57:16;;;;;;;23.88;17.25;;;29.80;99.90;;;;;;5074725;28;20020;-73
2023/03/22 09:59:45;;;;;;;25.88;17.10;;;29.60;99.90;;;;;;5074962;28;20016;-73
2023/03/22 10:02:25;;;;;;;27.15;16.73;;;29.50;99.90;;;;;;5074864;28;20013;-73
2023/03/22 10:04:54;;;;;;;266.73;210.65;;;29.60;99.90;;;;;;5065930;28;20389;-73
2023/03/22 10:07:26;;;;;;;29.63;21.45;;;29.70;99.90;;;;;;5057949;28;20032;-70
2023/03/22 10:09:53;;;;;;;19.48;13.93;;;29.70;99.90;;;;;;5054659;28;20017;-71
2023/03/22 10:12:30;;;;;;;20.70;13.88;;;29.70;99.90;;;;;;5054633;28;20391;-70
2023/03/22 10:15:04;;;;;;;19.52;14.70;;;29.70;99.90;;;;;;5054687;28;20023;-70
2023/03/22 10:17:31;;;;;;;29.48;19.25;;;29.60;99.90;;;;;;5054557;28;20104;-69
2023/03/22 10:20:07;;;;;;;31.20;21.08;;;29.60;99.90;;;;;;5054445;28;20021;-71
2023/03/22 10:22:37;;;;;;;21.08;14.60;;;29.80;99.90;;;;;;5065768;28;20432;-69
2023/03/22 10:25:07;;;;;;;21.45;14.13;;;29.70;99.90;;;;;;5067156;28;20017;-73
2023/03/22 10:27:35;;;;;;;18.92;13.02;;;29.70;99.90;;;;;;5054211;28;20033;-69
2023/03/22 10:30:17;;;;;;;18.75;14.10;;;29.70;99.90;;;;;;5058393;28;20481;-70
2023/03/22 10:32:43;;;;;;;;;;;29.70;99.90;;;;;;5074583;28;20036;-71
2023/03/22 10:35:14;;;;;;;39.45;25.05;;;29.80;99.90;;;;;;5072196;28;20373;-68
2023/03/22 10:37:45;;;;;;;30.67;21.10;;;29.70;99.90;;;;;;5074205;28;20099;-72
2023/03/22 10:40:19;;;;;;;25.02;16.67;;;29.70;99.90;;;;;;5073959;28;20020;-70
2023/03/22 10:42:53;;;;;;;24.45;17.98;;;29.70;99.90;;;;;;5073889;28;20101;-69
2023/03/22 10:45:20;;;;;;;26.85;17.25;;;29.70;99.90;;;;;;5072201;28;20047;-68
2023/03/22 10:47:52;;;;;;;41.40;23.98;;;29.70;99.90;;;;;;5071853;28;20025;-68
2023/03/22 10:50:27;;;;;;;33.80;22.00;;;29.90;99.90;;;;;;5065477;28;20681;-71
2023/03/22 10:53:14;;;;;;;24.20;16.15;;;30.00;99.90;;;;;;5062639;28;20021;-70
2023/03/22 10:55:42;;;;;;;95.43;73.13;;;30.00;99.90;;;;;;5053966;28;20044;-70
2023/03/22 10:58:11;;;;;;;70.30;51.90;;;29.90;99.90;;;;;;5054239;28;20032;-70
2023/03/22 11:00:42;;;;;;;50.70;34.78;;;29.90;99.90;;;;;;5056619;28;20695;-71
2023/03/22 11:03:22;;;;;;;24.27;16.75;;;29.90;99.90;;;;;;5060839;28;20036;-71
2023/03/22 11:05:59;;;;;;;44.75;29.02;;;30.00;99.90;;;;;;5061566;28;20032;-70
2023/03/22 11:08:26;;;;;;;74.00;48.17;;;29.90;99.90;;;;;;5068938;28;20039;-71
2023/03/22 11:10:54;;;;;;;82.35;53.53;;;29.80;99.90;;;;;;5068831;28;20016;-72
2023/03/22 11:13:23;;;;;;;73.10;46.97;;;29.70;99.90;;;;;;5068865;28;20021;-71
2023/03/22 11:15:57;;;;;;;88.35;50.35;;;29.70;99.90;;;;;;5068677;28;20404;-71
2023/03/22 11:18:29;;;;;;;78.10;49.38;;;29.90;99.90;;;;;;5060300;28;20024;-73
2023/03/22 11:21:03;;;;;;;95.85;58.47;;;30.00;99.90;;;;;;5062017;28;20048;-72
2023/03/22 11:23:33;;;;;;;92.15;55.65;;;30.00;99.90;;;;;;5059403;28;20074;-73
2023/03/22 11:26:07;;;;;;;93.47;56.30;;;29.90;99.90;;;;;;5063060;28;20032;-73
2023/03/22 11:28:41;;;;;;;98.50;59.90;;;29.90;99.90;;;;;;5063107;28;20078;-70
2023/03/22 11:31:09;;;;;;;114.30;74.47;;;30.00;99.90;;;;;;5059554;28;20381;-73
2023/03/22 11:33:36;;;;;;;183.07;120.43;;;29.90;99.90;;;;;;5055264;28;20037;-72
2023/03/22 11:36:16;;;;;;;211.55;138.07;;;29.90;99.90;;;;;;5058473;28;20031;-72
2023/03/22 11:38:43;;;;;;;131.23;84.63;;;29.90;99.90;;;;;;5065535;28;20017;-72
2023/03/22 11:41:13;;;;;;;166.75;100.07;;;29.90;99.90;;;;;;5062357;28;20023;-73
2023/03/22 11:43:47;;;;;;;151.93;104.18;;;29.90;99.90;;;;;;5062635;28;20541;-72
2023/03/22 11:46:18;;;;;;;144.27;93.82;;;29.90;99.90;;;;;;5064315;28;20060;-73
2023/03/22 11:48:47;;;;;;;135.40;84.30;;;29.90;99.90;;;;;;5056703;28;20025;-71
2023/03/22 11:51:16;;;;;;;111.10;65.13;;;29.80;99.90;;;;;;5060598;28;20414;-73
2023/03/22 11:53:46;;;;;;;223.70;137.93;;;29.90;99.90;;;;;;5060446;28;20086;-73
2023/03/22 11:56:18;;;;;;;177.75;113.60;;;29.90;99.90;;;;;;5062138;28;20027;-70
2023/03/22 11:59:06;;;;;;;63.33;36.83;;;29.90;99.90;;;;;;5065297;28;20296;-71
2023/03/22 12:01:39;;;;;;;74.88;44.15;;;29.80;99.90;;;;;;5066583;28;20390;-70
2023/03/22 12:04:14;;;;;;;67.47;40.60;;;29.70;99.90;;;;;;5062876;28;20520;-70
2023/03/22 12:06:41;;;;;;;25.50;15.10;;;29.70;99.90;;;;;;5066706;28;20085;-72
2023/03/22 12:09:10;;;;;;;29.38;16.08;;;29.70;99.90;;;;;;5066076;28;20024;-67
2023/03/22 12:11:42;;;;;;;35.50;20.92;;;29.60;99.90;;;;;;5065519;28;20021;-68
2023/03/22 12:14:14;;;;;;;57.15;31.55;;;29.50;99.90;;;;;;5064985;28;20542;-70
2023/03/22 12:16:48;;;;;;;41.78;22.75;;;29.60;99.90;;;;;;5065061;28;20021;-70
2023/03/22 12:19:20;;;;;;;30.90;17.50;;;29.70;99.90;;;;;;5065653;28;20041;-70
2023/03/22 12:21:49;;;;;;;28.27;17.38;;;29.80;99.90;;;;;;5066517;28;20339;-73
2023/03/22 12:24:20;;;;;;;61.95;41.00;;;29.70;99.90;;;;;;5063606;28;20108;-72
2023/03/22 12:26:48;;;;;;;59.60;40.55;;;29.70;99.90;;;;;;5073644;28;20021;-72
2023/03/22 12:29:18;;;;;;;95.78;66.63;;;29.70;99.90;;;;;;5073567;28;20032;-73
2023/03/22 12:31:56;;;;;;;26.67;16.48;;;29.70;99.90;;;;;;5072231;28;20029;-73
2023/03/22 12:34:32;;;;;;;42.00;18.48;;;29.60;99.90;;;;;;5068570;28;20075;-73
2023/03/22 12:37:02;;;;;;;35.85;21.25;;;29.50;99.90;;;;;;5065760;28;20381;-73
2023/03/22 12:39:34;;;;;;;51.03;28.27;;;29.50;99.90;;;;;;5071534;28;20457;-73
2023/03/22 12:42:07;;;;;;;49.42;29.10;;;29.40;99.90;;;;;;5057500;28;20104;-72
2023/03/22 12:44:40;;;;;;;47.80;29.73;;;29.40;99.90;;;;;;5068388;28;20029;-74